Time;durP1;ratioP1;P1;durP2;ratioP2;P2;SDS_P1;SDS_P2;PMS_P1;PMS_P2;Temp;Humidity;BMP_temperature;BMP_pressure;BME280_temperature;BME280_humidity;BME280_pressure;Samples;Min_cycle;Max_cycle;Signal;HPM_P1;HPM_P2
2022/09/21 00:01:44;;;;;;;8.93;5.40;;;9.60;99.90;;;;;;5092488;28;20207;-80
2022/09/21 00:04:25;;;;;;;9.37;5.40;;;9.60;99.90;;;;;;5092122;28;20220;-79
2022/09/21 00:06:52;;;;;;;8.73;5.43;;;9.60;99.90;;;;;;5091794;28;20646;-79
2022/09/21 00:09:19;;;;;;;10.00;6.30;;;9.60;99.90;;;;;;5092288;28;20205;-81
2022/09/21 00:11:46;;;;;;;10.77;6.07;;;9.60;99.90;;;;;;5092091;28;20220;-78
2022/09/21 00:14:13;;;;;;;10.17;5.73;;;9.70;99.90;;;;;;5091903;28;20197;-79
2022/09/21 00:16:58;;;;;;;8.47;5.33;;;9.60;99.90;;;;;;5092146;28;20239;-80
2022/09/21 00:19:25;;;;;;;10.50;5.00;;;9.60;99.90;;;;;;5092077;28;20272;-79
2022/09/21 00:21:56;;;;;;;9.83;6.10;;;9.70;99.90;;;;;;5092608;28;20504;-79
2022/09/21 00:24:23;;;;;;;9.17;5.50;;;9.70;99.90;;;;;;5093218;28;20506;-81
2022/09/21 00:26:53;;;;;;;9.80;6.03;;;9.70;99.90;;;;;;5092292;28;20193;-79
2022/09/21 00:29:20;;;;;;;10.73;6.00;;;9.70;99.90;;;;;;5093332;28;20212;-79
2022/09/21 00:31:47;;;;;;;11.47;6.00;;;9.70;99.90;;;;;;5092234;28;20715;-79
2022/09/21 00:34:14;;;;;;;11.47;6.13;;;9.70;99.90;;;;;;5091817;28;20209;-79
2022/09/21 00:36:41;;;;;;;9.73;6.20;;;9.70;99.90;;;;;;5091823;28;20220;-78
2022/09/21 00:39:08;;;;;;;14.73;6.20;;;9.70;99.90;;;;;;5091714;28;20219;-78
2022/09/21 00:41:54;;;;;;;10.10;5.97;;;9.70;99.90;;;;;;5091923;28;20246;-79
2022/09/21 00:44:21;;;;;;;9.23;6.07;;;9.70;99.90;;;;;;5092888;28;20189;-78
2022/09/21 00:47:00;;;;;;;10.40;6.40;;;9.80;99.90;;;;;;5093052;28;20264;-79
2022/09/21 00:49:53;;;;;;;10.47;6.50;;;9.70;99.90;;;;;;5089957;28;20304;-80
2022/09/21 00:52:26;;;;;;;11.53;6.43;;;9.80;99.90;;;;;;5091966;28;20618;-79
2022/09/21 00:55:21;;;;;;;11.10;6.93;;;9.80;99.90;;;;;;5091897;28;20311;-79
2022/09/21 00:57:54;;;;;;;11.30;7.53;;;9.80;99.90;;;;;;5010973;28;20226;-78
2022/09/21 01:00:21;;;;;;;12.57;7.43;;;9.90;99.90;;;;;;5011167;28;20247;-79
2022/09/21 01:02:48;;;;;;;12.70;7.73;;;9.90;99.90;;;;;;5011043;28;20210;-79
2022/09/21 01:05:15;;;;;;;13.03;8.00;;;9.80;99.90;;;;;;4994418;28;20224;-78
2022/09/21 01:07:46;;;;;;;11.87;8.07;;;9.80;99.90;;;;;;4994149;28;20201;-79
2022/09/21 01:10:18;;;;;;;15.50;8.97;;;9.90;99.90;;;;;;5010857;28;20308;-78
2022/09/21 01:13:02;;;;;;;12.80;8.40;;;9.90;99.90;;;;;;5012023;28;20199;-79
2022/09/21 01:15:48;;;;;;;14.67;9.73;;;9.90;99.90;;;;;;5013801;28;20223;-81
2022/09/21 01:19:04;;;;;;;15.67;9.33;;;9.90;99.90;;;;;;5013982;28;20223;-80
2022/09/21 01:22:18;;;;;;;15.47;9.60;;;9.90;99.90;;;;;;5013554;22;20224;-80
2022/09/21 01:24:47;;;;;;;14.50;9.13;;;9.90;99.90;;;;;;5090966;28;20219;-80
2022/09/21 01:27:51;;;;;;;16.20;10.00;;;9.90;99.90;;;;;;5094256;28;20198;-80
2022/09/21 01:30:26;;;;;;;14.57;9.93;;;10.00;99.90;;;;;;5112266;28;20205;-82
2022/09/21 01:32:56;;;;;;;15.87;10.33;;;10.00;99.90;;;;;;5095943;28;20242;-81
2022/09/21 01:35:54;;;;;;;15.27;10.30;;;10.00;99.90;;;;;;5096062;28;20244;-81
2022/09/21 01:38:32;;;;;;;16.77;10.07;;;10.00;99.90;;;;;;5096430;28;20288;-80
2022/09/21 01:41:03;;;;;;;16.93;10.60;;;10.00;99.90;;;;;;5094416;28;20556;-83
2022/09/21 01:44:14;;;;;;;16.33;10.90;;;10.10;99.90;;;;;;5094758;28;20193;-80
2022/09/21 01:46:45;;;;;;;17.93;10.73;;;10.20;99.90;;;;;;5095003;28;20613;-79
2022/09/21 01:49:20;;;;;;;16.53;10.90;;;10.10;99.90;;;;;;5095071;28;20197;-79
2022/09/21 01:52:17;;;;;;;15.27;11.07;;;10.20;99.90;;;;;;5111908;28;20197;-79
2022/09/21 01:55:02;;;;;;;17.10;11.10;;;10.20;99.90;;;;;;5049134;28;20208;-79
2022/09/21 01:57:35;;;;;;;17.00;11.07;;;10.20;99.90;;;;;;5095859;28;20695;-78
2022/09/21 02:00:09;;;;;;;17.40;11.40;;;10.10;99.90;;;;;;5084864;22;20256;-78
2022/09/21 02:02:38;;;;;;;17.27;11.83;;;10.10;99.90;;;;;;5075619;28;20221;-79
2022/09/21 02:05:06;;;;;;;17.53;11.53;;;10.10;99.90;;;;;;5075253;28;20543;-79
2022/09/21 02:07:34;;;;;;;18.10;11.20;;;10.10;99.90;;;;;;5075352;28;21009;-79
2022/09/21 02:10:03;;;;;;;18.33;11.83;;;10.10;99.90;;;;;;5057367;28;20206;-80
2022/09/21 02:12:31;;;;;;;18.90;12.13;;;10.10;99.90;;;;;;5074739;28;20198;-79
2022/09/21 02:15:03;;;;;;;18.80;11.73;;;10.10;99.90;;;;;;5074295;28;20198;-80
2022/09/21 02:18:05;;;;;;;20.53;12.07;;;10.10;99.90;;;;;;5073904;28;20254;-80
2022/09/21 02:20:55;;;;;;;17.23;11.13;;;10.10;99.90;;;;;;5074763;28;20284;-79
2022/09/21 02:23:31;;;;;;;19.87;10.83;;;10.20;99.90;;;;;;5074000;28;20198;-80
2022/09/21 02:26:11;;;;;;;15.93;10.77;;;10.20;99.90;;;;;;5075657;28;20201;-80
2022/09/21 02:32:34;;;;;;;19.43;11.57;;;10.20;99.90;;;;;;5076090;28;20207;-80
2022/09/21 02:35:08;;;;;;;19.30;11.53;;;10.20;99.90;;;;;;5051430;28;20684;-80
2022/09/21 02:38:02;;;;;;;19.90;11.40;;;10.10;99.90;;;;;;5075534;28;20219;-79
2022/09/21 02:41:12;;;;;;;17.73;11.63;;;10.10;99.90;;;;;;5071003;28;20202;-80
2022/09/21 02:43:44;;;;;;;17.40;11.50;;;10.10;99.90;;;;;;5016369;28;20200;-79
2022/09/21 02:46:27;;;;;;;16.63;11.03;;;10.20;99.90;;;;;;5032674;28;20680;-78
2022/09/21 02:49:04;;;;;;;16.13;11.00;;;10.20;99.90;;;;;;5016024;28;20578;-78
2022/09/21 02:51:40;;;;;;;18.07;11.80;;;10.20;99.90;;;;;;5032868;28;20257;-80
2022/09/21 02:54:10;;;;;;;19.50;11.93;;;10.20;99.90;;;;;;5015934;28;20213;-81
2022/09/21 02:56:40;;;;;;;18.70;11.53;;;10.30;99.90;;;;;;5032770;28;20758;-80
2022/09/21 02:59:10;;;;;;;20.13;12.07;;;10.30;99.90;;;;;;5032781;28;20224;-79
2022/09/21 03:01:39;;;;;;;19.43;11.73;;;10.20;99.90;;;;;;5032556;28;20201;-78
2022/09/21 03:04:21;;;;;;;19.57;11.57;;;10.20;99.90;;;;;;5032433;28;20191;-78
2022/09/21 03:06:48;;;;;;;18.83;11.70;;;10.20;99.90;;;;;;5032337;28;20561;-80
2022/09/21 03:09:16;;;;;;;18.17;11.43;;;10.30;99.90;;;;;;5032440;28;20183;-81
2022/09/21 03:11:43;;;;;;;17.80;11.73;;;10.40;99.90;;;;;;5079302;22;20715;-79
2022/09/21 03:14:10;;;;;;;21.67;11.83;;;10.30;99.90;;;;;;5105569;22;20237;-79
2022/09/21 03:16:46;;;;;;;17.90;11.50;;;10.30;99.90;;;;;;5115762;28;20221;-79
2022/09/21 03:19:14;;;;;;;19.90;11.27;;;10.30;99.90;;;;;;5096746;28;20200;-79
2022/09/21 03:21:41;;;;;;;20.00;10.77;;;10.40;99.90;;;;;;5114859;28;20711;-81
2022/09/21 03:24:11;;;;;;;18.70;11.00;;;10.40;99.90;;;;;;5096440;28;20246;-81
2022/09/21 03:26:38;;;;;;;18.00;11.43;;;10.30;99.90;;;;;;5095846;28;20221;-78
2022/09/21 03:29:05;;;;;;;19.33;11.50;;;10.20;99.90;;;;;;5099417;22;20241;-81
2022/09/21 03:31:40;;;;;;;17.43;11.33;;;10.30;99.90;;;;;;5094573;28;20227;-82
2022/09/21 03:34:10;;;;;;;18.83;11.30;;;10.40;99.90;;;;;;5096074;28;20181;-80
2022/09/21 03:36:37;;;;;;;20.10;12.03;;;10.40;99.90;;;;;;5114371;28;20303;-79
2022/09/21 03:39:05;;;;;;;18.73;10.77;;;10.30;99.90;;;;;;5079540;28;20668;-79
2022/09/21 03:41:38;;;;;;;20.87;11.37;;;10.30;99.90;;;;;;5088298;22;20324;-79
2022/09/21 03:44:05;;;;;;;20.87;12.00;;;10.30;99.90;;;;;;5072322;28;20633;-79
2022/09/21 03:46:34;;;;;;;19.53;11.83;;;10.30;99.90;;;;;;5072231;28;20549;-79
2022/09/21 03:49:04;;;;;;;22.70;12.13;;;10.30;99.90;;;;;;5072101;28;20197;-79
2022/09/21 03:51:33;;;;;;;18.20;11.83;;;10.20;99.90;;;;;;5073874;28;20186;-79
2022/09/21 03:54:00;;;;;;;22.37;11.87;;;10.20;99.90;;;;;;5056080;28;20198;-80
2022/09/21 03:56:27;;;;;;;20.87;12.00;;;10.20;99.90;;;;;;5055320;28;20686;-79
2022/09/21 03:58:54;;;;;;;20.40;12.10;;;10.30;99.90;;;;;;5073321;28;20186;-79
2022/09/21 04:01:27;;;;;;;20.30;11.43;;;10.30;99.90;;;;;;5072978;28;20281;-78
2022/09/21 04:03:54;;;;;;;21.83;12.03;;;10.20;99.90;;;;;;5072092;28;20197;-80
2022/09/21 04:06:21;;;;;;;20.87;12.10;;;10.20;99.90;;;;;;5073233;28;20269;-79
2022/09/21 04:08:48;;;;;;;26.27;12.17;;;10.20;99.90;;;;;;5055526;28;20208;-79
2022/09/21 04:11:17;;;;;;;20.10;11.87;;;10.20;99.90;;;;;;5088127;28;20230;-79
2022/09/21 04:13:49;;;;;;;21.03;11.33;;;10.20;99.90;;;;;;5073577;28;20190;-79
2022/09/21 04:16:18;;;;;;;20.37;11.53;;;10.20;99.90;;;;;;5073018;28;20205;-78
2022/09/21 04:18:49;;;;;;;19.50;10.43;;;10.30;99.90;;;;;;5073976;28;20190;-79
2022/09/21 04:21:31;;;;;;;17.50;10.93;;;10.30;99.90;;;;;;5055216;28;20194;-78
2022/09/21 04:23:59;;;;;;;19.00;10.73;;;10.30;99.90;;;;;;5054862;28;20225;-79
2022/09/21 04:26:28;;;;;;;21.03;10.63;;;10.20;99.90;;;;;;5072805;28;20186;-78
2022/09/21 04:28:56;;;;;;;18.60;10.87;;;10.30;99.90;;;;;;5073293;28;20216;-80
2022/09/21 04:31:46;;;;;;;17.10;10.47;;;10.30;99.90;;;;;;5071689;28;20198;-80
2022/09/21 04:34:13;;;;;;;16.83;10.40;;;10.30;99.90;;;;;;5071778;28;20204;-81
2022/09/21 04:36:40;;;;;;;19.57;10.40;;;10.30;99.90;;;;;;5054543;28;20306;-79
2022/09/21 04:39:07;;;;;;;18.03;9.87;;;10.40;99.90;;;;;;5055017;28;20194;-79
2022/09/21 04:41:34;;;;;;;14.63;10.03;;;10.50;99.90;;;;;;5096348;28;20549;-79
2022/09/21 04:44:08;;;;;;;14.63;9.17;;;10.50;99.90;;;;;;5078232;28;20189;-79
2022/09/21 04:46:49;;;;;;;16.50;9.30;;;10.50;99.90;;;;;;5095021;28;20185;-80
2022/09/21 04:49:16;;;;;;;14.20;10.00;;;10.60;99.90;;;;;;5094796;28;20552;-82
2022/09/21 04:51:52;;;;;;;18.37;9.70;;;10.50;99.90;;;;;;5095111;28;20192;-80
2022/09/21 04:54:20;;;;;;;14.13;9.60;;;10.50;99.90;;;;;;5095109;28;20227;-81
2022/09/21 04:56:47;;;;;;;12.67;8.87;;;10.60;99.90;;;;;;5094604;28;20221;-82
2022/09/21 04:59:14;;;;;;;14.47;9.50;;;10.60;99.90;;;;;;5113377;28;20549;-81
2022/09/21 05:01:40;;;;;;;13.97;9.70;;;10.60;99.90;;;;;;5098847;28;20196;-80
2022/09/21 05:04:07;;;;;;;13.47;9.00;;;10.60;99.90;;;;;;5096978;28;20220;-78
2022/09/21 05:06:35;;;;;;;13.80;9.13;;;10.70;99.90;;;;;;5098885;28;20188;-81
2022/09/21 05:10:07;;;;;;;12.63;8.67;;;10.80;99.90;;;;;;5098777;28;20192;-79
2022/09/21 05:12:14;;;;;;;13.20;8.73;;;10.70;99.90;;;;;;5087121;28;20212;-79
2022/09/21 05:14:43;;;;;;;13.43;8.63;;;10.70;99.90;;;;;;5098975;28;20193;-79
2022/09/21 05:17:11;;;;;;;14.37;8.60;;;10.60;99.90;;;;;;5091047;22;20303;-78
2022/09/21 05:19:38;;;;;;;13.37;8.37;;;10.60;99.90;;;;;;5093727;28;20309;-79
2022/09/21 05:22:05;;;;;;;13.40;9.27;;;10.60;99.90;;;;;;5096825;28;20185;-80
2022/09/21 05:24:32;;;;;;;14.10;8.50;;;10.60;99.90;;;;;;5095067;28;20564;-79
2022/09/21 05:27:12;;;;;;;14.43;9.40;;;10.60;99.90;;;;;;5111023;28;20186;-80
2022/09/21 05:29:58;;;;;;;13.00;8.53;;;10.60;99.90;;;;;;5095244;28;20711;-79
2022/09/21 05:32:53;;;;;;;14.53;7.83;;;10.60;99.90;;;;;;5097040;28;20649;-80
2022/09/21 05:35:28;;;;;;;12.57;8.17;;;10.50;99.90;;;;;;5096979;28;20185;-82
2022/09/21 05:38:18;;;;;;;14.17;8.30;;;10.60;99.90;;;;;;5096747;28;20603;-83
2022/09/21 05:40:49;;;;;;;12.90;8.37;;;10.70;99.90;;;;;;5095103;28;20247;-80
2022/09/21 05:43:16;;;;;;;11.47;7.47;;;10.70;99.90;;;;;;5096624;28;20268;-81
2022/09/21 05:45:46;;;;;;;14.20;8.33;;;10.80;99.90;;;;;;5104474;22;20255;-82
2022/09/21 05:48:25;;;;;;;14.33;8.83;;;10.80;99.90;;;;;;5098576;28;20201;-82
2022/09/21 05:51:09;;;;;;;13.60;8.17;;;10.70;99.90;;;;;;5098418;28;20216;-80
2022/09/21 05:53:54;;;;;;;13.13;8.33;;;10.80;99.90;;;;;;5116697;28;20495;-80
2022/09/21 05:56:28;;;;;;;11.07;7.90;;;10.80;99.90;;;;;;5099868;28;20192;-81
2022/09/21 05:59:11;;;;;;;10.80;7.67;;;11.00;99.90;;;;;;5121787;28;20193;-78
2022/09/21 06:01:41;;;;;;;11.83;7.63;;;11.00;99.90;;;;;;5097323;28;20203;-82
2022/09/21 06:04:12;;;;;;;9.27;7.10;;;11.10;99.90;;;;;;5097748;27;20211;-79
2022/09/21 06:06:40;;;;;;;11.50;6.70;;;11.10;99.90;;;;;;5078282;28;20634;-79
2022/09/21 06:09:07;;;;;;;9.60;6.50;;;11.10;99.90;;;;;;5098366;28;20197;-79
2022/09/21 06:11:34;;;;;;;11.93;7.43;;;11.10;99.90;;;;;;5096579;28;20221;-81
2022/09/21 06:14:03;;;;;;;12.57;6.80;;;11.00;99.90;;;;;;5097766;28;20192;-78
2022/09/21 06:16:41;;;;;;;11.70;7.10;;;11.10;99.90;;;;;;5097592;28;20231;-76
2022/09/21 06:19:12;;;;;;;9.27;6.10;;;11.10;99.90;;;;;;5117831;28;20197;-76
2022/09/21 06:21:39;;;;;;;9.97;6.53;;;11.00;99.90;;;;;;5099320;28;20254;-76
2022/09/21 06:24:06;;;;;;;13.23;6.83;;;11.10;99.90;;;;;;5091562;28;20672;-76
2022/09/21 06:26:34;;;;;;;12.73;6.83;;;11.30;99.90;;;;;;5096957;28;20196;-78
2022/09/21 06:29:00;;;;;;;10.47;6.90;;;11.30;99.90;;;;;;5077681;28;20193;-77
2022/09/21 06:31:27;;;;;;;11.43;7.27;;;11.40;99.90;;;;;;5077602;28;20211;-76
2022/09/21 06:33:54;;;;;;;8.57;6.53;;;11.30;99.90;;;;;;5095604;28;20182;-78
2022/09/21 06:36:21;;;;;;;9.87;6.03;;;11.40;99.90;;;;;;5076680;28;20198;-76
2022/09/21 06:38:48;;;;;;;7.90;5.73;;;11.40;99.90;;;;;;5077014;28;20189;-76
2022/09/21 06:41:15;;;;;;;11.03;5.70;;;11.40;99.90;;;;;;5076959;28;20215;-77
2022/09/21 06:43:47;;;;;;;8.33;5.30;;;11.40;99.90;;;;;;5076691;28;20197;-75
2022/09/21 06:46:14;;;;;;;7.13;5.20;;;11.30;99.90;;;;;;5076132;28;20225;-75
2022/09/21 06:48:41;;;;;;;6.03;4.53;;;11.30;99.90;;;;;;5076799;28;20555;-78
2022/09/21 06:51:09;;;;;;;8.03;4.90;;;11.40;99.90;;;;;;5089321;28;20196;-75
2022/09/21 06:53:36;;;;;;;7.30;4.60;;;11.40;99.90;;;;;;5115462;28;20561;-78
2022/09/21 06:56:08;;;;;;;6.80;3.87;;;11.40;99.90;;;;;;5076740;28;20616;-77
2022/09/21 06:58:36;;;;;;;6.77;3.90;;;11.40;99.90;;;;;;5076626;28;20249;-76
2022/09/21 07:01:08;;;;;;;5.33;3.33;;;11.30;99.90;;;;;;5077154;28;20246;-75
2022/09/21 07:03:36;;;;;;;6.57;3.50;;;11.30;99.90;;;;;;5095030;28;20190;-77
2022/09/21 07:06:06;;;;;;;5.30;3.57;;;11.40;99.90;;;;;;5079450;28;20209;-75
2022/09/21 07:08:34;;;;;;;5.60;3.43;;;11.50;99.90;;;;;;5115131;28;20209;-75
2022/09/21 07:11:22;;;;;;;5.30;3.87;;;11.50;99.90;;;;;;5093296;28;20213;-75
2022/09/21 07:13:49;;;;;;;4.50;3.40;;;11.50;99.90;;;;;;5084239;28;20276;-75
2022/09/21 07:16:18;;;;;;;5.33;3.50;;;11.50;99.90;;;;;;5075994;28;20200;-80
2022/09/21 07:18:45;;;;;;;4.40;3.30;;;11.60;99.90;;;;;;5094318;28;20247;-75
2022/09/21 07:21:13;;;;;;;5.03;3.40;;;11.60;99.90;;;;;;5076171;28;20646;-75
2022/09/21 07:23:40;;;;;;;6.47;3.23;;;11.60;99.90;;;;;;5075810;28;20587;-75
2022/09/21 07:26:11;;;;;;;7.47;3.17;;;11.80;99.90;;;;;;5068765;28;20185;-75
2022/09/21 07:28:38;;;;;;;4.37;3.40;;;11.80;99.90;;;;;;5069548;28;20260;-76
2022/09/21 07:31:14;;;;;;;6.40;3.67;;;11.80;99.90;;;;;;5098081;28;20194;-74
2022/09/21 07:33:42;;;;;;;6.40;3.40;;;11.80;99.90;;;;;;5093846;28;20283;-75
2022/09/21 07:36:16;;;;;;;4.17;3.20;;;12.00;99.90;;;;;;5072136;28;20191;-76
2022/09/21 07:38:43;;;;;;;5.63;3.37;;;11.90;99.90;;;;;;5072600;28;20240;-74
2022/09/21 07:41:12;;;;;;;5.13;3.20;;;12.00;99.90;;;;;;5076012;28;20221;-78
2022/09/21 07:43:40;;;;;;;5.13;3.10;;;12.20;99.90;;;;;;5075354;28;20201;-74
2022/09/21 07:46:08;;;;;;;5.37;3.00;;;12.30;99.90;;;;;;5088500;28;20235;-75
2022/09/21 07:48:36;;;;;;;5.30;3.30;;;12.30;99.90;;;;;;5114191;28;20188;-75
2022/09/21 07:51:05;;;;;;;3.23;2.93;;;12.40;99.90;;;;;;5076406;28;20189;-75
2022/09/21 07:53:33;;;;;;;3.80;2.77;;;12.40;99.90;;;;;;5075531;28;20193;-76
2022/09/21 07:56:05;;;;;;;4.33;3.20;;;12.40;99.90;;;;;;5075309;28;20197;-75
2022/09/21 08:01:28;;;;;;;4.77;3.30;;;12.50;99.90;;;;;;5075604;28;20657;-74
2022/09/21 08:03:56;;;;;;;5.60;3.90;;;12.70;99.90;;;;;;5075292;28;20654;-77
2022/09/21 08:06:26;;;;;;;5.47;3.73;;;12.70;99.90;;;;;;5093306;28;20182;-77
2022/09/21 08:08:53;;;;;;;4.50;3.70;;;12.80;99.90;;;;;;5093267;28;20278;-75
2022/09/21 08:11:25;;;;;;;4.87;4.00;;;13.00;99.90;;;;;;5075134;28;20274;-75
2022/09/21 08:14:01;;;;;;;5.33;3.80;;;13.20;99.90;;;;;;5075252;28;20211;-76
2022/09/21 08:16:29;;;;;;;5.27;2.90;;;13.70;99.90;;;;;;5075076;28;20217;-74
2022/09/21 08:18:56;;;;;;;6.57;2.67;;;14.10;99.90;;;;;;5058083;28;20217;-73
2022/09/21 08:21:23;;;;;;;3.00;2.70;;;14.60;99.90;;;;;;5093088;28;20646;-74
2022/09/21 08:23:50;;;;;;;3.47;2.50;;;14.80;99.90;;;;;;5075079;28;20733;-73
2022/09/21 08:26:18;;;;;;;2.87;2.27;;;14.90;99.90;;;;;;5074919;28;20662;-77
2022/09/21 08:28:50;;;;;;;2.60;1.60;;;14.60;99.90;;;;;;5089304;28;20185;-76
2022/09/21 08:31:19;;;;;;;3.30;1.60;;;14.20;99.90;;;;;;5072796;28;20231;-75
2022/09/21 08:33:48;;;;;;;1.90;1.43;;;14.40;99.90;;;;;;5078654;28;20374;-74
2022/09/21 08:36:16;;;;;;;3.10;1.50;;;15.00;99.90;;;;;;5108937;28;20565;-75
2022/09/21 08:38:43;;;;;;;1.93;1.23;;;15.30;99.90;;;;;;5095543;28;20204;-73
2022/09/21 08:41:13;;;;;;;1.67;1.30;;;15.70;99.90;;;;;;5089756;28;20380;-74
2022/09/21 08:43:43;;;;;;;2.00;1.40;;;15.50;99.90;;;;;;5076135;28;20200;-76
2022/09/21 08:46:15;;;;;;;2.97;1.50;;;15.40;99.90;;;;;;5093828;28;20225;-74
2022/09/21 08:49:09;;;;;;;1.70;1.60;;;15.50;99.90;;;;;;5104172;28;20200;-77
2022/09/21 08:51:47;;;;;;;3.47;1.93;;;15.30;99.90;;;;;;5093759;28;20260;-74
2022/09/21 08:54:31;;;;;;;2.73;2.00;;;15.30;99.90;;;;;;5070305;28;20249;-75
2022/09/21 08:57:00;;;;;;;4.47;1.97;;;15.20;99.90;;;;;;5053651;28;20193;-75
2022/09/21 08:59:33;;;;;;;3.60;2.00;;;15.20;99.90;;;;;;5070261;28;20227;-74
2022/09/21 09:02:20;;;;;;;3.80;2.07;;;15.10;99.90;;;;;;5075008;28;20197;-75
2022/09/21 09:05:06;;;;;;;2.50;1.93;;;14.90;99.90;;;;;;5079115;28;20196;-74
2022/09/21 09:08:05;;;;;;;2.40;1.80;;;14.60;99.90;;;;;;5076092;28;20208;-74
2022/09/21 09:10:35;;;;;;;2.53;1.80;;;14.50;99.90;;;;;;5066533;28;20721;-71
2022/09/21 09:13:34;;;;;;;3.53;1.70;;;14.30;99.90;;;;;;5081814;28;20192;-73
2022/09/21 09:16:00;;;;;;;2.83;1.80;;;14.20;99.90;;;;;;5090709;28;20245;-75
2022/09/21 09:18:40;;;;;;;2.33;1.63;;;14.30;99.90;;;;;;5084621;28;20316;-76
2022/09/21 09:21:20;;;;;;;3.07;1.80;;;14.70;99.90;;;;;;5084083;28;20272;-75
2022/09/21 09:24:13;;;;;;;2.30;1.60;;;15.10;99.90;;;;;;5076742;28;20201;-77
2022/09/21 09:27:14;;;;;;;2.47;1.47;;;15.40;99.90;;;;;;5075163;28;20193;-77
2022/09/21 09:30:09;;;;;;;2.60;1.30;;;15.50;99.90;;;;;;5093190;28;20653;-81
2022/09/21 09:33:01;;;;;;;1.77;1.30;;;15.40;99.90;;;;;;5085455;28;20208;-82
2022/09/21 09:35:33;;;;;;;2.83;1.73;;;15.00;99.90;;;;;;5083325;28;20201;-75
2022/09/21 09:38:29;;;;;;;1.93;1.57;;;14.80;99.90;;;;;;5068601;28;20282;-81
2022/09/21 09:41:46;;;;;;;2.13;1.47;;;14.50;99.90;;;;;;5083644;28;20635;-79
2022/09/21 09:44:18;;;;;;;2.13;1.40;;;14.60;99.90;;;;;;4973467;28;20256;-77
2022/09/21 09:47:21;;;;;;;4.63;1.80;;;14.60;99.90;;;;;;4981184;28;20596;-73
2022/09/21 09:50:20;;;;;;;2.83;1.57;;;14.60;99.90;;;;;;4982678;28;20653;-79
2022/09/21 09:53:10;;;;;;;2.47;1.60;;;14.50;99.90;;;;;;5004308;28;20745;-76
2022/09/21 09:55:42;;;;;;;1.90;1.53;;;14.70;99.90;;;;;;4992271;28;20189;-75
2022/09/21 09:58:32;;;;;;;1.57;1.37;;;14.70;99.90;;;;;;4971940;28;20251;-77
2022/09/21 10:00:59;;;;;;;2.13;1.50;;;14.80;99.90;;;;;;4999747;28;20204;-72
2022/09/21 10:03:27;;;;;;;2.40;1.40;;;14.70;99.90;;;;;;4994073;28;20193;-74
2022/09/21 10:05:54;;;;;;;2.40;1.67;;;14.60;99.90;;;;;;4977360;28;20200;-76
2022/09/21 10:08:35;;;;;;;3.67;1.43;;;14.60;99.90;;;;;;4986095;28;20201;-74
2022/09/21 10:11:03;;;;;;;2.60;1.50;;;14.70;99.90;;;;;;4980569;28;20224;-75
2022/09/21 10:13:32;;;;;;;2.97;1.67;;;14.70;99.90;;;;;;4982174;28;20200;-73
2022/09/21 10:16:11;;;;;;;2.77;1.40;;;14.60;99.90;;;;;;4990197;28;20332;-76
2022/09/21 10:18:46;;;;;;;2.23;1.40;;;14.80;99.90;;;;;;4994111;28;20602;-74
2022/09/21 10:21:35;;;;;;;2.57;1.50;;;15.30;99.90;;;;;;5090523;28;20192;-80
2022/09/21 10:24:36;;;;;;;1.70;1.30;;;15.80;99.90;;;;;;5068640;28;20198;-74
2022/09/21 10:27:10;;;;;;;2.50;1.27;;;16.50;99.90;;;;;;5017847;28;20620;-78
2022/09/21 10:29:45;;;;;;;2.27;1.37;;;17.00;99.90;;;;;;4999746;28;20203;-79
2022/09/21 10:32:12;;;;;;;2.97;1.40;;;17.10;99.90;;;;;;4996876;28;20203;-81
2022/09/21 10:35:06;;;;;;;1.90;1.40;;;16.80;99.90;;;;;;4980323;28;20215;-77
2022/09/21 10:37:41;;;;;;;1.70;1.10;;;17.00;99.90;;;;;;5000602;28;20196;-77
2022/09/21 10:40:16;;;;;;;1.40;1.30;;;17.10;99.90;;;;;;5020861;28;20604;-78
2022/09/21 10:42:44;;;;;;;1.43;1.20;;;17.10;99.90;;;;;;4991874;28;20279;-76
2022/09/21 10:45:16;;;;;;;1.73;1.30;;;17.10;99.90;;;;;;5019523;28;20218;-73
2022/09/21 10:48:08;;;;;;;1.40;1.20;;;17.00;99.90;;;;;;4998286;28;20669;-76
2022/09/21 10:50:40;;;;;;;1.50;1.37;;;16.70;99.90;;;;;;5019748;28;20220;-77
2022/09/21 10:53:27;;;;;;;1.30;1.20;;;16.30;99.90;;;;;;4991661;28;20670;-76
2022/09/21 10:56:00;;;;;;;2.20;1.20;;;15.80;99.90;;;;;;4993883;28;20688;-76
2022/09/21 10:59:28;;;;;;;2.60;1.17;;;15.60;99.90;;;;;;5002411;28;20227;-77
2022/09/21 11:01:57;;;;;;;1.63;1.40;;;15.60;99.90;;;;;;4991589;28;20211;-77
2022/09/21 11:04:42;;;;;;;2.00;1.43;;;15.70;99.90;;;;;;5068933;28;20201;-78
2022/09/21 11:07:15;;;;;;;3.47;1.40;;;16.10;99.90;;;;;;5081737;28;20220;-76
2022/09/21 11:12:37;;;;;;;2.40;1.47;;;16.00;99.90;;;;;;5093319;28;20278;-80
2022/09/21 11:15:36;;;;;;;2.17;1.40;;;15.90;99.90;;;;;;5099414;28;20505;-76
2022/09/21 11:18:20;;;;;;;1.60;1.23;;;15.70;99.90;;;;;;5096515;28;20243;-77
2022/09/21 11:20:53;;;;;;;1.87;1.40;;;15.60;99.90;;;;;;5097848;27;20192;-83
2022/09/21 11:23:48;;;;;;;2.10;1.70;;;15.50;99.90;;;;;;5082761;28;20194;-80
2022/09/21 11:26:32;;;;;;;2.00;1.50;;;15.50;99.90;;;;;;5103221;28;20262;-83
2022/09/21 11:29:16;;;;;;;2.57;1.60;;;15.70;99.90;;;;;;5097181;28;20209;-81
2022/09/21 11:32:22;;;;;;;2.30;1.67;;;16.00;99.90;;;;;;5111596;28;20188;-76
2022/09/21 11:35:25;;;;;;;1.70;1.60;;;16.20;99.90;;;;;;5032603;28;20201;-73
2022/09/21 11:38:03;;;;;;;4.23;1.63;;;16.10;99.90;;;;;;5029544;28;20202;-78
2022/09/21 11:40:48;;;;;;;4.63;1.87;;;16.10;99.90;;;;;;5043367;28;20203;-77
2022/09/21 11:43:36;;;;;;;3.30;1.77;;;16.10;99.90;;;;;;5007787;28;20652;-77
2022/09/21 11:46:21;;;;;;;3.30;1.80;;;16.30;99.90;;;;;;5012550;28;20214;-84
2022/09/21 11:49:12;;;;;;;4.63;1.77;;;17.00;99.90;;;;;;5011277;28;20227;-83
2022/09/21 11:52:09;;;;;;;2.03;1.57;;;17.50;99.90;;;;;;5012652;28;20207;-84
2022/09/21 11:55:19;;;;;;;3.20;1.70;;;17.50;99.90;;;;;;5028438;28;20199;-82
2022/09/21 11:58:26;;;;;;;2.23;1.50;;;17.20;99.90;;;;;;4966712;28;20202;-76
2022/09/21 12:01:23;;;;;;;3.73;1.60;;;17.00;99.90;;;;;;4967548;28;20209;-76
2022/09/21 12:04:04;;;;;;;1.60;1.20;;;16.80;99.90;;;;;;4951198;28;20209;-77
2022/09/21 12:06:48;;;;;;;1.03;0.97;;;16.70;99.90;;;;;;4978465;28;20205;-75
2022/09/21 12:09:48;;;;;;;1.63;0.80;;;16.90;99.90;;;;;;4969671;28;20303;-75
2022/09/21 12:12:29;;;;;;;0.83;0.83;;;17.10;99.90;;;;;;4979129;28;20215;-78
2022/09/21 12:15:04;;;;;;;1.30;0.80;;;17.70;99.90;;;;;;4972944;28;20212;-78
2022/09/21 12:17:40;;;;;;;1.00;0.80;;;18.60;99.90;;;;;;4972203;28;20200;-77
2022/09/21 12:20:17;;;;;;;1.40;0.80;;;19.30;99.90;;;;;;4988910;28;20224;-76
2022/09/21 12:22:47;;;;;;;2.20;0.80;;;19.70;99.90;;;;;;5004438;28;20603;-76
2022/09/21 12:25:22;;;;;;;1.40;0.80;;;20.40;99.90;;;;;;4973004;28;20598;-78
2022/09/21 12:27:57;;;;;;;2.80;0.90;;;20.50;99.90;;;;;;4973979;28;20700;-76
2022/09/21 12:30:30;;;;;;;1.33;0.80;;;20.30;99.90;;;;;;4989608;28;20200;-77
2022/09/21 12:33:21;;;;;;;0.90;0.67;;;20.20;99.90;;;;;;5064906;28;20186;-77
2022/09/21 12:35:57;;;;;;;1.50;0.70;;;20.30;99.90;;;;;;5082858;28;20197;-74
2022/09/21 12:38:43;;;;;;;0.83;0.60;;;20.00;99.90;;;;;;5086094;28;20216;-74
2022/09/21 12:41:33;;;;;;;1.00;0.57;;;19.80;99.90;;;;;;5075068;28;20204;-75
2022/09/21 12:44:25;;;;;;;1.80;0.70;;;19.50;99.90;;;;;;5091898;28;20223;-77
2022/09/21 12:47:08;;;;;;;0.60;0.60;;;19.40;99.90;;;;;;5064756;28;20201;-76
2022/09/21 12:49:43;;;;;;;2.40;0.57;;;19.50;99.90;;;;;;5059117;28;20234;-77
2022/09/21 12:52:24;;;;;;;0.83;0.50;;;19.50;99.90;;;;;;5073657;28;20520;-77
2022/09/21 12:55:07;;;;;;;0.60;0.60;;;19.70;99.90;;;;;;5073384;28;20203;-76
2022/09/21 12:57:56;;;;;;;0.77;0.67;;;19.40;99.90;;;;;;5072005;28;20324;-77
2022/09/21 13:01:12;;;;;;;1.53;0.60;;;19.50;99.90;;;;;;5072761;28;20284;-81
2022/09/21 13:03:58;;;;;;;0.60;0.50;;;19.40;99.90;;;;;;5089662;28;20292;-75
2022/09/21 13:06:58;;;;;;;0.63;0.63;;;18.90;99.90;;;;;;5091245;28;20207;-78
2022/09/21 13:09:27;;;;;;;1.00;0.50;;;18.70;99.90;;;;;;5091558;28;20197;-76
2022/09/21 13:12:08;;;;;;;1.27;0.53;;;18.60;99.90;;;;;;5119118;28;20232;-79
2022/09/21 13:15:01;;;;;;;0.60;0.50;;;18.20;99.90;;;;;;5121637;28;20192;-79
2022/09/21 13:17:30;;;;;;;0.80;0.70;;;17.90;99.90;;;;;;5077429;28;20200;-78
2022/09/21 13:20:15;;;;;;;1.53;0.83;;;17.60;99.90;;;;;;5085578;28;20209;-82
2022/09/21 13:22:44;;;;;;;0.70;0.57;;;17.50;99.90;;;;;;5088875;28;20204;-79
2022/09/21 13:25:29;;;;;;;0.87;0.60;;;17.30;99.90;;;;;;5111047;28;20246;-79
2022/09/21 13:28:15;;;;;;;2.67;0.73;;;17.10;99.90;;;;;;5086390;28;20185;-78
2022/09/21 13:30:48;;;;;;;1.30;0.90;;;17.00;99.90;;;;;;5092560;28;20185;-78
2022/09/21 13:33:18;;;;;;;1.10;0.87;;;16.50;99.90;;;;;;5095153;28;20217;-75
2022/09/21 13:36:03;;;;;;;2.90;1.03;;;15.90;99.90;;;;;;5077863;28;20219;-77
2022/09/21 13:38:44;;;;;;;5.97;1.33;;;15.30;99.90;;;;;;5096681;28;20540;-81